Time;durP1;ratioP1;P1;durP2;ratioP2;P2;SDS_P1;SDS_P2;PMS_P1;PMS_P2;Temp;Humidity;BMP_temperature;BMP_pressure;BME280_temperature;BME280_humidity;BME280_pressure;Samples;Min_cycle;Max_cycle;Signal;HPM_P1;HPM_P2
2021/04/22 00:00:46;;;;;;;13.95;10.65;;;;;;;6.19;58.38867;95172;;;;
2021/04/22 00:01:46;;;;;;;13.95;10.65;;;;;;;6.19;58.38867;95172;;;;
2021/04/22 00:02:47;;;;;;;13.95;10.65;;;;;;;6.19;58.38867;95172;;;;
2021/04/22 00:03:47;;;;;;;13.95;10.65;;;;;;;6.19;58.38867;95172;;;;
2021/04/22 00:04:48;;;;;;;13.95;10.65;;;;;;;6.19;58.38867;95172;;;;
2021/04/22 00:05:49;;;;;;;13.95;10.65;;;;;;;6.19;58.38867;95172;;;;
2021/04/22 00:06:49;;;;;;;13.95;10.65;;;;;;;6.19;58.38867;95172;;;;
2021/04/22 00:07:51;;;;;;;13.95;10.65;;;;;;;6.19;58.38867;95172;;;;
2021/04/22 00:08:52;;;;;;;13.95;10.65;;;;;;;6.19;58.38867;95172;;;;
2021/04/22 00:09:53;;;;;;;14.5;10.05;;;;;;;6.23;58.71387;95165.2;;;;
2021/04/22 00:10:53;;;;;;;14.5;10.05;;;;;;;6.23;58.71387;95165.2;;;;
2021/04/22 00:11:54;;;;;;;14.5;10.05;;;;;;;6.23;58.71387;95165.2;;;;
2021/04/22 00:12:55;;;;;;;14.5;10.05;;;;;;;6.23;58.71387;95165.2;;;;
2021/04/22 00:13:55;;;;;;;14.5;10.05;;;;;;;6.23;58.71387;95165.2;;;;
2021/04/22 00:14:56;;;;;;;14.5;10.05;;;;;;;6.23;58.71387;95165.2;;;;
2021/04/22 00:15:57;;;;;;;14.5;10.05;;;;;;;6.23;58.71387;95165.2;;;;
2021/04/22 00:16:57;;;;;;;14.5;10.05;;;;;;;6.23;58.71387;95165.2;;;;
2021/04/22 00:17:58;;;;;;;14.5;10.05;;;;;;;6.23;58.71387;95165.2;;;;
2021/04/22 00:18:59;;;;;;;14.5;10.05;;;;;;;6.23;58.71387;95165.2;;;;
2021/04/22 00:20:00;;;;;;;15.15;10.4;;;;;;;6.3;59.12793;95167.83;;;;
2021/04/22 00:21:00;;;;;;;15.15;10.4;;;;;;;6.3;59.12793;95167.83;;;;
2021/04/22 00:22:01;;;;;;;15.15;10.4;;;;;;;6.3;59.12793;95167.83;;;;
2021/04/22 00:23:02;;;;;;;15.15;10.4;;;;;;;6.3;59.12793;95167.83;;;;
2021/04/22 00:24:03;;;;;;;15.15;10.4;;;;;;;6.3;59.12793;95167.83;;;;
2021/04/22 00:25:04;;;;;;;15.15;10.4;;;;;;;6.3;59.12793;95167.83;;;;
2021/04/22 00:26:06;;;;;;;15.15;10.4;;;;;;;6.3;59.12793;95167.83;;;;
2021/04/22 00:27:07;;;;;;;15.15;10.4;;;;;;;6.3;59.12793;95167.83;;;;
2021/04/22 00:28:07;;;;;;;15.15;10.4;;;;;;;6.3;59.12793;95167.83;;;;
2021/04/22 00:29:10;;;;;;;15.15;10.4;;;;;;;6.3;59.12793;95167.83;;;;
2021/04/22 00:30:11;;;;;;;15.15;10.4;;;;;;;6.3;59.12793;95167.83;;;;
2021/04/22 00:31:15;;;;;;;14.85;11;;;;;;;6.32;59.20508;95157.22;;;;
2021/04/22 00:32:16;;;;;;;14.85;11;;;;;;;6.32;59.20508;95157.22;;;;
2021/04/22 00:33:16;;;;;;;14.85;11;;;;;;;6.32;59.20508;95157.22;;;;
2021/04/22 00:34:20;;;;;;;14.85;11;;;;;;;6.32;59.20508;95157.22;;;;
2021/04/22 00:35:21;;;;;;;14.85;11;;;;;;;6.32;59.20508;95157.22;;;;
2021/04/22 00:36:22;;;;;;;14.85;11;;;;;;;6.32;59.20508;95157.22;;;;
2021/04/22 00:37:23;;;;;;;14.85;11;;;;;;;6.32;59.20508;95157.22;;;;
2021/04/22 00:38:23;;;;;;;14.85;11;;;;;;;6.32;59.20508;95157.22;;;;
2021/04/22 00:39:24;;;;;;;14.85;11;;;;;;;6.32;59.20508;95157.22;;;;
2021/04/22 00:40:24;;;;;;;14.85;11;;;;;;;6.32;59.20508;95157.22;;;;
2021/04/22 00:41:27;;;;;;;13.2;10.35;;;;;;;6.41;59.63281;95145.22;;;;
2021/04/22 00:42:27;;;;;;;13.2;10.35;;;;;;;6.41;59.63281;95145.22;;;;
2021/04/22 00:43:28;;;;;;;13.2;10.35;;;;;;;6.41;59.63281;95145.22;;;;
2021/04/22 00:44:29;;;;;;;13.2;10.35;;;;;;;6.41;59.63281;95145.22;;;;
2021/04/22 00:45:30;;;;;;;13.2;10.35;;;;;;;6.41;59.63281;95145.22;;;;
2021/04/22 00:46:32;;;;;;;13.2;10.35;;;;;;;6.41;59.63281;95145.22;;;;
2021/04/22 00:47:35;;;;;;;13.2;10.35;;;;;;;6.41;59.63281;95145.22;;;;
2021/04/22 00:48:37;;;;;;;13.2;10.35;;;;;;;6.41;59.63281;95145.22;;;;
2021/04/22 00:49:37;;;;;;;13.2;10.35;;;;;;;6.41;59.63281;95145.22;;;;
2021/04/22 00:50:38;;;;;;;13.2;10.35;;;;;;;6.41;59.63281;95145.22;;;;
2021/04/22 00:51:40;;;;;;;13.45;10.25;;;;;;;6.64;59.83398;95141.99;;;;
2021/04/22 00:52:41;;;;;;;13.45;10.25;;;;;;;6.64;59.83398;95141.99;;;;
2021/04/22 00:53:42;;;;;;;13.45;10.25;;;;;;;6.64;59.83398;95141.99;;;;
2021/04/22 00:54:45;;;;;;;13.45;10.25;;;;;;;6.64;59.83398;95141.99;;;;
2021/04/22 00:55:46;;;;;;;13.45;10.25;;;;;;;6.64;59.83398;95141.99;;;;
2021/04/22 00:56:47;;;;;;;13.45;10.25;;;;;;;6.64;59.83398;95141.99;;;;
2021/04/22 00:57:48;;;;;;;13.45;10.25;;;;;;;6.64;59.83398;95141.99;;;;
2021/04/22 00:58:49;;;;;;;13.45;10.25;;;;;;;6.64;59.83398;95141.99;;;;
2021/04/22 00:59:50;;;;;;;13.45;10.25;;;;;;;6.64;59.83398;95141.99;;;;
2021/04/22 01:00:51;;;;;;;13.45;10.25;;;;;;;6.64;59.83398;95141.99;;;;
2021/04/22 01:01:55;;;;;;;13.45;10.25;;;;;;;6.64;59.83398;95141.99;;;;
2021/04/22 01:02:56;;;;;;;13.75;10.45;;;;;;;6.91;60.35156;95137.18;;;;
2021/04/22 01:03:57;;;;;;;13.75;10.45;;;;;;;6.91;60.35156;95137.18;;;;
2021/04/22 01:04:58;;;;;;;13.75;10.45;;;;;;;6.91;60.35156;95137.18;;;;
2021/04/22 01:05:59;;;;;;;13.75;10.45;;;;;;;6.91;60.35156;95137.18;;;;
2021/04/22 01:07:01;;;;;;;13.75;10.45;;;;;;;6.91;60.35156;95137.18;;;;
2021/04/22 01:08:02;;;;;;;13.75;10.45;;;;;;;6.91;60.35156;95137.18;;;;
2021/04/22 01:09:03;;;;;;;13.75;10.45;;;;;;;6.91;60.35156;95137.18;;;;
2021/04/22 01:10:05;;;;;;;13.75;10.45;;;;;;;6.91;60.35156;95137.18;;;;
2021/04/22 01:11:07;;;;;;;13.75;10.45;;;;;;;6.91;60.35156;95137.18;;;;
2021/04/22 01:12:08;;;;;;;13.75;10.45;;;;;;;6.91;60.35156;95137.18;;;;
2021/04/22 01:13:11;;;;;;;13.7;9.500001;;;;;;;7.17;60.82422;95128.12;;;;
2021/04/22 01:14:12;;;;;;;13.7;9.500001;;;;;;;7.17;60.82422;95128.12;;;;
2021/04/22 01:15:12;;;;;;;13.7;9.500001;;;;;;;7.17;60.82422;95128.12;;;;
2021/04/22 01:16:16;;;;;;;13.7;9.500001;;;;;;;7.17;60.82422;95128.12;;;;
2021/04/22 01:17:16;;;;;;;13.7;9.500001;;;;;;;7.17;60.82422;95128.12;;;;
2021/04/22 01:18:17;;;;;;;13.7;9.500001;;;;;;;7.17;60.82422;95128.12;;;;
2021/04/22 01:19:17;;;;;;;13.7;9.500001;;;;;;;7.17;60.82422;95128.12;;;;
2021/04/22 01:20:18;;;;;;;13.7;9.500001;;;;;;;7.17;60.82422;95128.12;;;;
2021/04/22 01:21:21;;;;;;;13.7;9.500001;;;;;;;7.17;60.82422;95128.12;;;;
2021/04/22 01:22:24;;;;;;;13.7;9.500001;;;;;;;7.17;60.82422;95128.12;;;;
2021/04/22 01:23:25;;;;;;;13.7;9.500001;;;;;;;7.17;60.82422;95128.12;;;;
2021/04/22 01:24:25;;;;;;;13.6;10.55;;;;;;;7.37;60.89453;95177.12;;;;
2021/04/22 01:25:26;;;;;;;13.6;10.55;;;;;;;7.37;60.89453;95177.12;;;;
2021/04/22 01:26:28;;;;;;;13.6;10.55;;;;;;;7.37;60.89453;95177.12;;;;
2021/04/22 01:27:29;;;;;;;13.6;10.55;;;;;;;7.37;60.89453;95177.12;;;;
2021/04/22 01:28:29;;;;;;;13.6;10.55;;;;;;;7.37;60.89453;95177.12;;;;
2021/04/22 01:29:30;;;;;;;13.6;10.55;;;;;;;7.37;60.89453;95177.12;;;;
2021/04/22 01:30:30;;;;;;;13.6;10.55;;;;;;;7.37;60.89453;95177.12;;;;
2021/04/22 01:31:34;;;;;;;13.6;10.55;;;;;;;7.37;60.89453;95177.12;;;;
2021/04/22 01:32:35;;;;;;;13.6;10.55;;;;;;;7.37;60.89453;95177.12;;;;
2021/04/22 01:33:36;;;;;;;13.6;10.55;;;;;;;7.37;60.89453;95177.12;;;;
2021/04/22 01:34:36;;;;;;;15.5;12.7;;;;;;;7.59;61.78906;95191;;;;
2021/04/22 01:35:37;;;;;;;15.5;12.7;;;;;;;7.59;61.78906;95191;;;;
2021/04/22 01:36:40;;;;;;;15.5;12.7;;;;;;;7.59;61.78906;95191;;;;
2021/04/22 01:37:43;;;;;;;15.5;12.7;;;;;;;7.59;61.78906;95191;;;;
2021/04/22 01:38:44;;;;;;;15.5;12.7;;;;;;;7.59;61.78906;95191;;;;
2021/04/22 01:39:45;;;;;;;15.5;12.7;;;;;;;7.59;61.78906;95191;;;;
2021/04/22 01:40:46;;;;;;;15.5;12.7;;;;;;;7.59;61.78906;95191;;;;
2021/04/22 01:41:48;;;;;;;15.5;12.7;;;;;;;7.59;61.78906;95191;;;;
2021/04/22 01:42:48;;;;;;;15.5;12.7;;;;;;;7.59;61.78906;95191;;;;
2021/04/22 01:43:49;;;;;;;15.5;12.7;;;;;;;7.59;61.78906;95191;;;;
2021/04/22 01:44:49;;;;;;;15.5;12.7;;;;;;;7.59;61.78906;95191;;;;
2021/04/22 01:45:50;;;;;;;9.75;8.200001;;;;;;;7.94;62.68359;95222.09;;;;
2021/04/22 01:46:50;;;;;;;9.75;8.200001;;;;;;;7.94;62.68359;95222.09;;;;
2021/04/22 01:47:52;;;;;;;9.75;8.200001;;;;;;;7.94;62.68359;95222.09;;;;
2021/04/22 01:48:53;;;;;;;9.75;8.200001;;;;;;;7.94;62.68359;95222.09;;;;
2021/04/22 01:49:54;;;;;;;9.75;8.200001;;;;;;;7.94;62.68359;95222.09;;;;
2021/04/22 01:50:55;;;;;;;9.75;8.200001;;;;;;;7.94;62.68359;95222.09;;;;
2021/04/22 01:51:56;;;;;;;9.75;8.200001;;;;;;;7.94;62.68359;95222.09;;;;
2021/04/22 01:52:56;;;;;;;9.75;8.200001;;;;;;;7.94;62.68359;95222.09;;;;
2021/04/22 01:53:57;;;;;;;9.75;8.200001;;;;;;;7.94;62.68359;95222.09;;;;
2021/04/22 01:54:57;;;;;;;9.75;8.200001;;;;;;;7.94;62.68359;95222.09;;;;
2021/04/22 01:55:58;;;;;;;11.2;8.5;;;;;;;8.08;63.2041;95174.78;;;;
2021/04/22 01:56:58;;;;;;;11.2;8.5;;;;;;;8.08;63.2041;95174.78;;;;
2021/04/22 01:57:59;;;;;;;11.2;8.5;;;;;;;8.08;63.2041;95174.78;;;;
2021/04/22 01:59:00;;;;;;;11.2;8.5;;;;;;;8.08;63.2041;95174.78;;;;
2021/04/22 02:00:00;;;;;;;11.2;8.5;;;;;;;8.08;63.2041;95174.78;;;;
2021/04/22 02:01:01;;;;;;;11.2;8.5;;;;;;;8.08;63.2041;95174.78;;;;
2021/04/22 02:02:02;;;;;;;11.2;8.5;;;;;;;8.08;63.2041;95174.78;;;;
2021/04/22 02:03:04;;;;;;;11.2;8.5;;;;;;;8.08;63.2041;95174.78;;;;
2021/04/22 02:04:06;;;;;;;11.2;8.5;;;;;;;8.08;63.2041;95174.78;;;;
2021/04/22 02:05:06;;;;;;;11.2;8.5;;;;;;;8.08;63.2041;95174.78;;;;
2021/04/22 02:06:10;;;;;;;11.2;8.5;;;;;;;8.08;63.2041;95174.78;;;;
2021/04/22 02:07:11;;;;;;;9.249999;7.95;;;;;;;8.08;64.97559;95142.52;;;;
2021/04/22 02:08:11;;;;;;;9.249999;7.95;;;;;;;8.08;64.97559;95142.52;;;;
2021/04/22 02:09:13;;;;;;;9.249999;7.95;;;;;;;8.08;64.97559;95142.52;;;;
2021/04/22 02:10:13;;;;;;;9.249999;7.95;;;;;;;8.08;64.97559;95142.52;;;;
2021/04/22 02:11:14;;;;;;;9.249999;7.95;;;;;;;8.08;64.97559;95142.52;;;;
2021/04/22 02:12:15;;;;;;;9.249999;7.95;;;;;;;8.08;64.97559;95142.52;;;;
2021/04/22 02:13:15;;;;;;;9.249999;7.95;;;;;;;8.08;64.97559;95142.52;;;;
2021/04/22 02:14:18;;;;;;;9.249999;7.95;;;;;;;8.08;64.97559;95142.52;;;;
2021/04/22 02:15:19;;;;;;;9.249999;7.95;;;;;;;8.08;64.97559;95142.52;;;;
2021/04/22 02:16:22;;;;;;;9.249999;7.95;;;;;;;8.08;64.97559;95142.52;;;;
2021/04/22 02:17:23;;;;;;;11.85;10.25;;;;;;;8.02;64.61621;95153.64;;;;
2021/04/22 02:18:23;;;;;;;11.85;10.25;;;;;;;8.02;64.61621;95153.64;;;;
2021/04/22 02:19:24;;;;;;;11.85;10.25;;;;;;;8.02;64.61621;95153.64;;;;
2021/04/22 02:20:25;;;;;;;11.85;10.25;;;;;;;8.02;64.61621;95153.64;;;;
2021/04/22 02:21:26;;;;;;;11.85;10.25;;;;;;;8.02;64.61621;95153.64;;;;
2021/04/22 02:22:26;;;;;;;11.85;10.25;;;;;;;8.02;64.61621;95153.64;;;;
2021/04/22 02:23:27;;;;;;;11.85;10.25;;;;;;;8.02;64.61621;95153.64;;;;
2021/04/22 02:24:29;;;;;;;11.85;10.25;;;;;;;8.02;64.61621;95153.64;;;;
2021/04/22 02:25:29;;;;;;;11.85;10.25;;;;;;;8.02;64.61621;95153.64;;;;
2021/04/22 02:26:30;;;;;;;11.85;10.25;;;;;;;8.02;64.61621;95153.64;;;;
2021/04/22 02:27:30;;;;;;;11.85;10.25;;;;;;;8.02;64.61621;95153.64;;;;
2021/04/22 02:28:33;;;;;;;12.25;10.5;;;;;;;7.91;65.12207;95151.72;;;;
2021/04/22 02:29:34;;;;;;;12.25;10.5;;;;;;;7.91;65.12207;95151.72;;;;
2021/04/22 02:30:34;;;;;;;12.25;10.5;;;;;;;7.91;65.12207;95151.72;;;;
2021/04/22 02:31:37;;;;;;;12.25;10.5;;;;;;;7.91;65.12207;95151.72;;;;
2021/04/22 02:32:38;;;;;;;12.25;10.5;;;;;;;7.91;65.12207;95151.72;;;;
2021/04/22 02:33:39;;;;;;;12.25;10.5;;;;;;;7.91;65.12207;95151.72;;;;
2021/04/22 02:34:40;;;;;;;12.25;10.5;;;;;;;7.91;65.12207;95151.72;;;;
2021/04/22 02:35:40;;;;;;;12.25;10.5;;;;;;;7.91;65.12207;95151.72;;;;
2021/04/22 02:36:42;;;;;;;12.25;10.5;;;;;;;7.91;65.12207;95151.72;;;;
2021/04/22 02:37:43;;;;;;;12.25;10.5;;;;;;;7.91;65.12207;95151.72;;;;
2021/04/22 02:38:44;;;;;;;12.1;10.8;;;;;;;7.86;65.26465;95141.2;;;;
2021/04/22 02:39:44;;;;;;;12.1;10.8;;;;;;;7.86;65.26465;95141.2;;;;
2021/04/22 02:40:45;;;;;;;12.1;10.8;;;;;;;7.86;65.26465;95141.2;;;;
2021/04/22 02:41:47;;;;;;;12.1;10.8;;;;;;;7.86;65.26465;95141.2;;;;
2021/04/22 02:42:47;;;;;;;12.1;10.8;;;;;;;7.86;65.26465;95141.2;;;;
2021/04/22 02:43:48;;;;;;;12.1;10.8;;;;;;;7.86;65.26465;95141.2;;;;
2021/04/22 02:44:48;;;;;;;12.1;10.8;;;;;;;7.86;65.26465;95141.2;;;;
2021/04/22 02:45:49;;;;;;;12.1;10.8;;;;;;;7.86;65.26465;95141.2;;;;
2021/04/22 02:46:53;;;;;;;12.1;10.8;;;;;;;7.86;65.26465;95141.2;;;;
2021/04/22 02:47:53;;;;;;;12.1;10.8;;;;;;;7.86;65.26465;95141.2;;;;
2021/04/22 02:48:54;;;;;;;12.1;10.8;;;;;;;7.86;65.26465;95141.2;;;;
2021/04/22 02:49:54;;;;;;;13.3;11.9;;;;;;;7.71;65.53906;95144.89;;;;
2021/04/22 02:50:55;;;;;;;13.3;11.9;;;;;;;7.71;65.53906;95144.89;;;;
2021/04/22 02:51:56;;;;;;;13.3;11.9;;;;;;;7.71;65.53906;95144.89;;;;
2021/04/22 02:52:57;;;;;;;13.3;11.9;;;;;;;7.71;65.53906;95144.89;;;;
2021/04/22 02:53:57;;;;;;;13.3;11.9;;;;;;;7.71;65.53906;95144.89;;;;
2021/04/22 02:54:58;;;;;;;13.3;11.9;;;;;;;7.71;65.53906;95144.89;;;;
2021/04/22 02:55:58;;;;;;;13.3;11.9;;;;;;;7.71;65.53906;95144.89;;;;
2021/04/22 02:56:59;;;;;;;13.3;11.9;;;;;;;7.71;65.53906;95144.89;;;;
2021/04/22 02:58:00;;;;;;;13.3;11.9;;;;;;;7.71;65.53906;95144.89;;;;
2021/04/22 02:59:01;;;;;;;13.3;11.9;;;;;;;7.71;65.53906;95144.89;;;;
2021/04/22 03:00:02;;;;;;;16.25;12.5;;;;;;;7.59;66.06543;95149.77;;;;
2021/04/22 03:01:05;;;;;;;16.25;12.5;;;;;;;7.59;66.06543;95149.77;;;;
2021/04/22 03:02:06;;;;;;;16.25;12.5;;;;;;;7.59;66.06543;95149.77;;;;
2021/04/22 03:03:06;;;;;;;16.25;12.5;;;;;;;7.59;66.06543;95149.77;;;;
2021/04/22 03:04:07;;;;;;;16.25;12.5;;;;;;;7.59;66.06543;95149.77;;;;
2021/04/22 03:05:08;;;;;;;16.25;12.5;;;;;;;7.59;66.06543;95149.77;;;;
2021/04/22 03:06:10;;;;;;;16.25;12.5;;;;;;;7.59;66.06543;95149.77;;;;
2021/04/22 03:07:10;;;;;;;16.25;12.5;;;;;;;7.59;66.06543;95149.77;;;;
2021/04/22 03:08:11;;;;;;;16.25;12.5;;;;;;;7.59;66.06543;95149.77;;;;
2021/04/22 03:09:12;;;;;;;16.25;12.5;;;;;;;7.59;66.06543;95149.77;;;;
2021/04/22 03:10:13;;;;;;;16.25;12.5;;;;;;;7.59;66.06543;95149.77;;;;
2021/04/22 03:11:16;;;;;;;15.7;12.9;;;;;;;7.51;66.3291;95153.13;;;;
2021/04/22 03:12:17;;;;;;;15.7;12.9;;;;;;;7.51;66.3291;95153.13;;;;
2021/04/22 03:13:17;;;;;;;15.7;12.9;;;;;;;7.51;66.3291;95153.13;;;;
2021/04/22 03:14:18;;;;;;;15.7;12.9;;;;;;;7.51;66.3291;95153.13;;;;
2021/04/22 03:15:19;;;;;;;15.7;12.9;;;;;;;7.51;66.3291;95153.13;;;;
2021/04/22 03:16:20;;;;;;;15.7;12.9;;;;;;;7.51;66.3291;95153.13;;;;
2021/04/22 03:17:21;;;;;;;15.7;12.9;;;;;;;7.51;66.3291;95153.13;;;;
2021/04/22 03:18:23;;;;;;;15.7;12.9;;;;;;;7.51;66.3291;95153.13;;;;
2021/04/22 03:19:23;;;;;;;15.7;12.9;;;;;;;7.51;66.3291;95153.13;;;;
2021/04/22 03:20:24;;;;;;;15.7;12.9;;;;;;;7.51;66.3291;95153.13;;;;
2021/04/22 03:21:25;;;;;;;14.55;12.15;;;;;;;7.27;67.21777;95153.53;;;;
2021/04/22 03:22:25;;;;;;;14.55;12.15;;;;;;;7.27;67.21777;95153.53;;;;
2021/04/22 03:23:26;;;;;;;14.55;12.15;;;;;;;7.27;67.21777;95153.53;;;;
2021/04/22 03:24:26;;;;;;;14.55;12.15;;;;;;;7.27;67.21777;95153.53;;;;
2021/04/22 03:25:27;;;;;;;14.55;12.15;;;;;;;7.27;67.21777;95153.53;;;;
2021/04/22 03:26:29;;;;;;;14.55;12.15;;;;;;;7.27;67.21777;95153.53;;;;
2021/04/22 03:27:29;;;;;;;14.55;12.15;;;;;;;7.27;67.21777;95153.53;;;;
2021/04/22 03:28:30;;;;;;;14.55;12.15;;;;;;;7.27;67.21777;95153.53;;;;
2021/04/22 03:29:30;;;;;;;14.55;12.15;;;;;;;7.27;67.21777;95153.53;;;;
2021/04/22 03:30:31;;;;;;;14.55;12.15;;;;;;;7.27;67.21777;95153.53;;;;
2021/04/22 03:31:33;;;;;;;14.55;12.15;;;;;;;7.27;67.21777;95153.53;;;;
2021/04/22 03:32:34;;;;;;;16.3;13.3;;;;;;;7.14;67.86816;95158.89;;;;
2021/04/22 03:33:35;;;;;;;16.3;13.3;;;;;;;7.14;67.86816;95158.89;;;;
2021/04/22 03:34:35;;;;;;;16.3;13.3;;;;;;;7.14;67.86816;95158.89;;;;
2021/04/22 03:35:36;;;;;;;16.3;13.3;;;;;;;7.14;67.86816;95158.89;;;;
2021/04/22 03:36:36;;;;;;;16.3;13.3;;;;;;;7.14;67.86816;95158.89;;;;
2021/04/22 03:37:37;;;;;;;16.3;13.3;;;;;;;7.14;67.86816;95158.89;;;;
2021/04/22 03:38:39;;;;;;;16.3;13.3;;;;;;;7.14;67.86816;95158.89;;;;
2021/04/22 03:39:39;;;;;;;16.3;13.3;;;;;;;7.14;67.86816;95158.89;;;;
2021/04/22 03:40:40;;;;;;;16.3;13.3;;;;;;;7.14;67.86816;95158.89;;;;
2021/04/22 03:41:41;;;;;;;16.3;13.3;;;;;;;7.14;67.86816;95158.89;;;;
2021/04/22 03:42:41;;;;;;;21;15.9;;;;;;;6.96;69.45605;95212.49;;;;
2021/04/22 03:43:42;;;;;;;21;15.9;;;;;;;6.96;69.45605;95212.49;;;;
2021/04/22 03:44:43;;;;;;;21;15.9;;;;;;;6.96;69.45605;95212.49;;;;
2021/04/22 03:45:43;;;;;;;21;15.9;;;;;;;6.96;69.45605;95212.49;;;;
2021/04/22 03:46:44;;;;;;;21;15.9;;;;;;;6.96;69.45605;95212.49;;;;
2021/04/22 03:47:44;;;;;;;21;15.9;;;;;;;6.96;69.45605;95212.49;;;;
2021/04/22 03:48:45;;;;;;;21;15.9;;;;;;;6.96;69.45605;95212.49;;;;
2021/04/22 03:49:46;;;;;;;21;15.9;;;;;;;6.96;69.45605;95212.49;;;;
2021/04/22 03:50:46;;;;;;;21;15.9;;;;;;;6.96;69.45605;95212.49;;;;
2021/04/22 03:51:47;;;;;;;21;15.9;;;;;;;6.96;69.45605;95212.49;;;;
2021/04/22 03:52:48;;;;;;;21;15.9;;;;;;;6.96;69.45605;95212.49;;;;
2021/04/22 03:53:49;;;;;;;21.2;16.45;;;;;;;6.94;69.85645;95204.79;;;;
2021/04/22 03:54:50;;;;;;;21.2;16.45;;;;;;;6.94;69.85645;95204.79;;;;
2021/04/22 03:55:52;;;;;;;21.2;16.45;;;;;;;6.94;69.85645;95204.79;;;;
2021/04/22 03:56:52;;;;;;;21.2;16.45;;;;;;;6.94;69.85645;95204.79;;;;
2021/04/22 03:57:53;;;;;;;21.2;16.45;;;;;;;6.94;69.85645;95204.79;;;;
2021/04/22 03:58:54;;;;;;;21.2;16.45;;;;;;;6.94;69.85645;95204.79;;;;
2021/04/22 03:59:54;;;;;;;21.2;16.45;;;;;;;6.94;69.85645;95204.79;;;;
2021/04/22 04:00:55;;;;;;;21.2;16.45;;;;;;;6.94;69.85645;95204.79;;;;
2021/04/22 04:01:55;;;;;;;21.2;16.45;;;;;;;6.94;69.85645;95204.79;;;;
2021/04/22 04:02:56;;;;;;;21.2;16.45;;;;;;;6.94;69.85645;95204.79;;;;
2021/04/22 04:03:56;;;;;;;21.05;16.7;;;;;;;6.93;70.06738;95197.76;;;;
2021/04/22 04:04:57;;;;;;;21.05;16.7;;;;;;;6.93;70.06738;95197.76;;;;
2021/04/22 04:05:57;;;;;;;21.05;16.7;;;;;;;6.93;70.06738;95197.76;;;;
2021/04/22 04:06:58;;;;;;;21.05;16.7;;;;;;;6.93;70.06738;95197.76;;;;
2021/04/22 04:07:58;;;;;;;21.05;16.7;;;;;;;6.93;70.06738;95197.76;;;;
2021/04/22 04:08:59;;;;;;;21.05;16.7;;;;;;;6.93;70.06738;95197.76;;;;
2021/04/22 04:09:59;;;;;;;21.05;16.7;;;;;;;6.93;70.06738;95197.76;;;;
2021/04/22 04:11:00;;;;;;;21.05;16.7;;;;;;;6.93;70.06738;95197.76;;;;
2021/04/22 04:12:00;;;;;;;21.05;16.7;;;;;;;6.93;70.06738;95197.76;;;;
2021/04/22 04:13:01;;;;;;;21.05;16.7;;;;;;;6.93;70.06738;95197.76;;;;
2021/04/22 04:14:02;;;;;;;21.05;16.7;;;;;;;6.93;70.06738;95197.76;;;;
2021/04/22 04:15:03;;;;;;;24.05;17.05;;;;;;;6.84;69.95703;95195.03;;;;
2021/04/22 04:16:06;;;;;;;24.05;17.05;;;;;;;6.84;69.95703;95195.03;;;;
2021/04/22 04:17:07;;;;;;;24.05;17.05;;;;;;;6.84;69.95703;95195.03;;;;
2021/04/22 04:18:08;;;;;;;24.05;17.05;;;;;;;6.84;69.95703;95195.03;;;;
2021/04/22 04:19:09;;;;;;;24.05;17.05;;;;;;;6.84;69.95703;95195.03;;;;
2021/04/22 04:20:09;;;;;;;24.05;17.05;;;;;;;6.84;69.95703;95195.03;;;;
2021/04/22 04:21:13;;;;;;;24.05;17.05;;;;;;;6.84;69.95703;95195.03;;;;
2021/04/22 04:22:13;;;;;;;24.05;17.05;;;;;;;6.84;69.95703;95195.03;;;;
2021/04/22 04:23:14;;;;;;;24.05;17.05;;;;;;;6.84;69.95703;95195.03;;;;
2021/04/22 04:24:15;;;;;;;24.05;17.05;;;;;;;6.84;69.95703;95195.03;;;;
2021/04/22 04:25:15;;;;;;;20.1;16.45;;;;;;;6.55;70.21777;95199.1;;;;
2021/04/22 04:26:16;;;;;;;20.1;16.45;;;;;;;6.55;70.21777;95199.1;;;;
2021/04/22 04:27:17;;;;;;;20.1;16.45;;;;;;;6.55;70.21777;95199.1;;;;
2021/04/22 04:28:17;;;;;;;20.1;16.45;;;;;;;6.55;70.21777;95199.1;;;;
2021/04/22 04:29:18;;;;;;;20.1;16.45;;;;;;;6.55;70.21777;95199.1;;;;
2021/04/22 04:30:19;;;;;;;20.1;16.45;;;;;;;6.55;70.21777;95199.1;;;;
2021/04/22 04:31:20;;;;;;;20.1;16.45;;;;;;;6.55;70.21777;95199.1;;;;
2021/04/22 04:32:21;;;;;;;20.1;16.45;;;;;;;6.55;70.21777;95199.1;;;;
2021/04/22 04:33:21;;;;;;;20.1;16.45;;;;;;;6.55;70.21777;95199.1;;;;
2021/04/22 04:34:22;;;;;;;20.1;16.45;;;;;;;6.55;70.21777;95199.1;;;;
2021/04/22 04:35:22;;;;;;;20.1;16.45;;;;;;;6.55;70.21777;95199.1;;;;
2021/04/22 04:36:23;;;;;;;24.35;17.9;;;;;;;6.4;70.69336;95193.19;;;;
2021/04/22 04:37:24;;;;;;;24.35;17.9;;;;;;;6.4;70.69336;95193.19;;;;
2021/04/22 04:38:24;;;;;;;24.35;17.9;;;;;;;6.4;70.69336;95193.19;;;;
2021/04/22 04:39:25;;;;;;;24.35;17.9;;;;;;;6.4;70.69336;95193.19;;;;
2021/04/22 04:40:25;;;;;;;24.35;17.9;;;;;;;6.4;70.69336;95193.19;;;;
2021/04/22 04:41:26;;;;;;;24.35;17.9;;;;;;;6.4;70.69336;95193.19;;;;
2021/04/22 04:42:27;;;;;;;24.35;17.9;;;;;;;6.4;70.69336;95193.19;;;;
2021/04/22 04:43:27;;;;;;;24.35;17.9;;;;;;;6.4;70.69336;95193.19;;;;
2021/04/22 04:44:28;;;;;;;24.35;17.9;;;;;;;6.4;70.69336;95193.19;;;;
2021/04/22 04:45:29;;;;;;;24.35;17.9;;;;;;;6.4;70.69336;95193.19;;;;
2021/04/22 04:46:29;;;;;;;24.15;17.9;;;;;;;6.4;71.02051;95221.86;;;;
2021/04/22 04:47:31;;;;;;;24.15;17.9;;;;;;;6.4;71.02051;95221.86;;;;
2021/04/22 04:48:32;;;;;;;24.15;17.9;;;;;;;6.4;71.02051;95221.86;;;;
2021/04/22 04:49:32;;;;;;;24.15;17.9;;;;;;;6.4;71.02051;95221.86;;;;
2021/04/22 04:50:33;;;;;;;24.15;17.9;;;;;;;6.4;71.02051;95221.86;;;;
2021/04/22 04:51:34;;;;;;;24.15;17.9;;;;;;;6.4;71.02051;95221.86;;;;
2021/04/22 04:52:35;;;;;;;24.15;17.9;;;;;;;6.4;71.02051;95221.86;;;;
2021/04/22 04:53:36;;;;;;;24.15;17.9;;;;;;;6.4;71.02051;95221.86;;;;
2021/04/22 04:54:36;;;;;;;24.15;17.9;;;;;;;6.4;71.02051;95221.86;;;;
2021/04/22 04:55:37;;;;;;;24.15;17.9;;;;;;;6.4;71.02051;95221.86;;;;
2021/04/22 04:56:37;;;;;;;24.15;17.9;;;;;;;6.4;71.02051;95221.86;;;;
2021/04/22 04:57:38;;;;;;;25.3;18.45;;;;;;;6.43;71.1748;95226.28;;;;
2021/04/22 04:58:39;;;;;;;25.3;18.45;;;;;;;6.43;71.1748;95226.28;;;;
2021/04/22 04:59:40;;;;;;;25.3;18.45;;;;;;;6.43;71.1748;95226.28;;;;
2021/04/22 05:00:40;;;;;;;25.3;18.45;;;;;;;6.43;71.1748;95226.28;;;;
2021/04/22 05:01:41;;;;;;;25.3;18.45;;;;;;;6.43;71.1748;95226.28;;;;
2021/04/22 05:02:41;;;;;;;25.3;18.45;;;;;;;6.43;71.1748;95226.28;;;;
2021/04/22 05:03:42;;;;;;;25.3;18.45;;;;;;;6.43;71.1748;95226.28;;;;
2021/04/22 05:04:43;;;;;;;25.3;18.45;;;;;;;6.43;71.1748;95226.28;;;;
2021/04/22 05:05:43;;;;;;;25.3;18.45;;;;;;;6.43;71.1748;95226.28;;;;
2021/04/22 05:06:44;;;;;;;25.3;18.45;;;;;;;6.43;71.1748;95226.28;;;;
2021/04/22 05:07:44;;;;;;;25.3;18.45;;;;;;;6.43;71.1748;95226.28;;;;
2021/04/22 05:08:45;;;;;;;28.95;20.3;;;;;;;6.7;71.41113;95234.53;;;;
2021/04/22 05:09:45;;;;;;;28.95;20.3;;;;;;;6.7;71.41113;95234.53;;;;
2021/04/22 05:10:46;;;;;;;28.95;20.3;;;;;;;6.7;71.41113;95234.53;;;;
2021/04/22 05:11:47;;;;;;;28.95;20.3;;;;;;;6.7;71.41113;95234.53;;;;
2021/04/22 05:12:47;;;;;;;28.95;20.3;;;;;;;6.7;71.41113;95234.53;;;;
2021/04/22 05:13:48;;;;;;;28.95;20.3;;;;;;;6.7;71.41113;95234.53;;;;
2021/04/22 05:14:48;;;;;;;28.95;20.3;;;;;;;6.7;71.41113;95234.53;;;;
2021/04/22 05:15:49;;;;;;;28.95;20.3;;;;;;;6.7;71.41113;95234.53;;;;
2021/04/22 05:16:50;;;;;;;28.95;20.3;;;;;;;6.7;71.41113;95234.53;;;;
2021/04/22 05:17:50;;;;;;;28.95;20.3;;;;;;;6.7;71.41113;95234.53;;;;
2021/04/22 05:18:51;;;;;;;25.65;18.85;;;;;;;7.07;71.48242;95250.32;;;;
2021/04/22 05:19:51;;;;;;;25.65;18.85;;;;;;;7.07;71.48242;95250.32;;;;
2021/04/22 05:20:53;;;;;;;25.65;18.85;;;;;;;7.07;71.48242;95250.32;;;;
2021/04/22 05:21:54;;;;;;;25.65;18.85;;;;;;;7.07;71.48242;95250.32;;;;
2021/04/22 05:22:54;;;;;;;25.65;18.85;;;;;;;7.07;71.48242;95250.32;;;;
2021/04/22 05:23:55;;;;;;;25.65;18.85;;;;;;;7.07;71.48242;95250.32;;;;
2021/04/22 05:24:55;;;;;;;25.65;18.85;;;;;;;7.07;71.48242;95250.32;;;;
2021/04/22 05:25:56;;;;;;;25.65;18.85;;;;;;;7.07;71.48242;95250.32;;;;
2021/04/22 05:26:56;;;;;;;25.65;18.85;;;;;;;7.07;71.48242;95250.32;;;;
2021/04/22 05:27:57;;;;;;;25.65;18.85;;;;;;;7.07;71.48242;95250.32;;;;
2021/04/22 05:28:58;;;;;;;25.65;18.85;;;;;;;7.07;71.48242;95250.32;;;;
2021/04/22 05:29:58;;;;;;;23.1;17.3;;;;;;;7.43;71.56445;95288.53;;;;
2021/04/22 05:30:59;;;;;;;23.1;17.3;;;;;;;7.43;71.56445;95288.53;;;;
2021/04/22 05:32:00;;;;;;;23.1;17.3;;;;;;;7.43;71.56445;95288.53;;;;
2021/04/22 05:33:01;;;;;;;23.1;17.3;;;;;;;7.43;71.56445;95288.53;;;;
2021/04/22 05:34:01;;;;;;;23.1;17.3;;;;;;;7.43;71.56445;95288.53;;;;
2021/04/22 05:35:03;;;;;;;23.1;17.3;;;;;;;7.43;71.56445;95288.53;;;;
2021/04/22 05:36:04;;;;;;;23.1;17.3;;;;;;;7.43;71.56445;95288.53;;;;
2021/04/22 05:37:05;;;;;;;23.1;17.3;;;;;;;7.43;71.56445;95288.53;;;;
2021/04/22 05:38:06;;;;;;;23.1;17.3;;;;;;;7.43;71.56445;95288.53;;;;
2021/04/22 05:39:07;;;;;;;23.1;17.3;;;;;;;7.43;71.56445;95288.53;;;;
2021/04/22 05:40:08;;;;;;;22.95;17.9;;;;;;;7.84;71.33203;95297.05;;;;
2021/04/22 05:41:10;;;;;;;22.95;17.9;;;;;;;7.84;71.33203;95297.05;;;;
2021/04/22 05:42:10;;;;;;;22.95;17.9;;;;;;;7.84;71.33203;95297.05;;;;
2021/04/22 05:43:11;;;;;;;22.95;17.9;;;;;;;7.84;71.33203;95297.05;;;;
2021/04/22 05:44:12;;;;;;;22.95;17.9;;;;;;;7.84;71.33203;95297.05;;;;
2021/04/22 05:45:12;;;;;;;22.95;17.9;;;;;;;7.84;71.33203;95297.05;;;;
2021/04/22 05:46:14;;;;;;;22.95;17.9;;;;;;;7.84;71.33203;95297.05;;;;